sensor_id;sensor_type;location;lat;lon;timestamp;pressure;altitude;pressure_sealevel;temperature;humidity
57376;BME280;44805;45.048;5.062;2022-12-10T01:12:07;98451.53;;;3.54;100.00
57376;BME280;44805;45.048;5.062;2022-12-10T01:18:14;98282.91;;;2.20;100.00
57376;BME280;44805;45.048;5.062;2022-12-10T01:20:39;98389.63;;;2.78;100.00
57376;BME280;44805;45.048;5.062;2022-12-10T01:23:05;98247.28;;;1.91;100.00
57376;BME280;44805;45.048;5.062;2022-12-10T01:25:32;98339.22;;;2.50;100.00
57376;BME280;44805;45.048;5.062;2022-12-10T01:27:57;98277.69;;;2.10;100.00
57376;BME280;44805;45.048;5.062;2022-12-10T01:30:22;98415.50;;;2.80;100.00
57376;BME280;44805;45.048;5.062;2022-12-10T01:33:06;98399.72;;;2.62;100.00
57376;BME280;44805;45.048;5.062;2022-12-10T01:35:36;98259.53;;;1.80;100.00
57376;BME280;44805;45.048;5.062;2022-12-10T01:38:02;98373.38;;;2.46;100.00
57376;BME280;44805;45.048;5.062;2022-12-10T01:40:27;98332.09;;;2.12;100.00
57376;BME280;44805;45.048;5.062;2022-12-10T01:42:53;98309.50;;;2.03;100.00
57376;BME280;44805;45.048;5.062;2022-12-10T01:45:18;98382.28;;;2.53;100.00
57376;BME280;44805;45.048;5.062;2022-12-10T01:51:06;98394.91;;;2.57;100.00
57376;BME280;44805;45.048;5.062;2022-12-10T01:53:32;98292.28;;;2.02;100.00
57376;BME280;44805;45.048;5.062;2022-12-10T01:55:58;98332.25;;;2.20;100.00
57376;BME280;44805;45.048;5.062;2022-12-10T01:58:25;98358.28;;;2.30;100.00
57376;BME280;44805;45.048;5.062;2022-12-10T02:08:19;98395.28;;;2.53;100.00
57376;BME280;44805;45.048;5.062;2022-12-10T02:11:28;98393.22;;;2.56;100.00
57376;BME280;44805;45.048;5.062;2022-12-10T02:17:47;98323.00;;;2.27;99.68
57376;BME280;44805;45.048;5.062;2022-12-10T02:20:31;98439.94;;;3.08;99.80
57376;BME280;44805;45.048;5.062;2022-12-10T02:23:14;98405.09;;;2.90;98.04
57376;BME280;44805;45.048;5.062;2022-12-10T02:31:23;98370.84;;;2.65;99.34
57376;BME280;44805;45.048;5.062;2022-12-10T02:33:56;98450.97;;;2.91;97.88
57376;BME280;44805;45.048;5.062;2022-12-10T02:36:24;98380.41;;;2.55;98.15
57376;BME280;44805;45.048;5.062;2022-12-10T02:38:52;98429.16;;;2.82;98.53
57376;BME280;44805;45.048;5.062;2022-12-10T02:41:28;98316.19;;;2.05;97.57
57376;BME280;44805;45.048;5.062;2022-12-10T02:43:57;98451.66;;;2.93;98.42
57376;BME280;44805;45.048;5.062;2022-12-10T02:46:25;98415.88;;;2.75;99.15
57376;BME280;44805;45.048;5.062;2022-12-10T02:48:54;98313.22;;;2.10;96.87
57376;BME280;44805;45.048;5.062;2022-12-10T02:51:20;98409.44;;;2.79;98.62
57376;BME280;44805;45.048;5.062;2022-12-10T02:53:46;98330.34;;;2.22;97.84
57376;BME280;44805;45.048;5.062;2022-12-10T02:56:32;98502.94;;;3.21;97.52
57376;BME280;44805;45.048;5.062;2022-12-10T03:02:06;98507.97;;;3.23;99.44
57376;BME280;44805;45.048;5.062;2022-12-10T03:07:55;98376.66;;;2.48;98.25
57376;BME280;44805;45.048;5.062;2022-12-10T03:10:33;98508.66;;;3.15;98.96
57376;BME280;44805;45.048;5.062;2022-12-10T03:13:07;98303.56;;;1.91;98.70
57376;BME280;44805;45.048;5.062;2022-12-10T03:15:35;98365.91;;;2.31;99.61
57376;BME280;44805;45.048;5.062;2022-12-10T03:18:04;98369.09;;;2.35;99.34
57376;BME280;44805;45.048;5.062;2022-12-10T03:20:33;98347.31;;;2.26;98.97
57376;BME280;44805;45.048;5.062;2022-12-10T03:23:02;98517.56;;;3.22;99.97
57376;BME280;44805;45.048;5.062;2022-12-10T03:25:30;98429.66;;;2.66;100.00
57376;BME280;44805;45.048;5.062;2022-12-10T03:27:59;98429.66;;;2.66;100.00
57376;BME280;44805;45.048;5.062;2022-12-10T03:30:30;98450.19;;;2.69;99.89
57376;BME280;44805;45.048;5.062;2022-12-10T03:36:24;98479.63;;;2.79;100.00
57376;BME280;44805;45.048;5.062;2022-12-10T03:38:50;98412.06;;;2.49;100.00
57376;BME280;44805;45.048;5.062;2022-12-10T03:41:19;98297.47;;;1.71;100.00
57376;BME280;44805;45.048;5.062;2022-12-10T03:43:59;98366.22;;;2.07;99.81
57376;BME280;44805;45.048;5.062;2022-12-10T03:46:49;98456.28;;;2.58;100.00
57376;BME280;44805;45.048;5.062;2022-12-10T03:49:36;98536.88;;;3.20;100.00
57376;BME280;44805;45.048;5.062;2022-12-10T03:52:02;98474.28;;;2.71;100.00
57376;BME280;44805;45.048;5.062;2022-12-10T03:54:39;98406.31;;;2.14;99.37
57376;BME280;44805;45.048;5.062;2022-12-10T03:57:08;98464.13;;;2.68;100.00
57376;BME280;44805;45.048;5.062;2022-12-10T03:59:33;98400.22;;;2.25;100.00
57376;BME280;44805;45.048;5.062;2022-12-10T04:08:34;98558.63;;;3.19;100.00
57376;BME280;44805;45.048;5.062;2022-12-10T04:11:10;98541.69;;;2.94;100.00
57376;BME280;44805;45.048;5.062;2022-12-10T04:13:38;98546.34;;;3.00;100.00
57376;BME280;44805;45.048;5.062;2022-12-10T04:16:23;98484.16;;;2.56;100.00
57376;BME280;44805;45.048;5.062;2022-12-10T04:22:13;98557.84;;;2.97;100.00
57376;BME280;44805;45.048;5.062;2022-12-10T04:24:57;98476.09;;;2.50;100.00
57376;BME280;44805;45.048;5.062;2022-12-10T04:27:51;98375.84;;;1.74;100.00
57376;BME280;44805;45.048;5.062;2022-12-10T04:30:21;98411.50;;;1.93;100.00
57376;BME280;44805;45.048;5.062;2022-12-10T04:33:21;98588.34;;;3.16;100.00
57376;BME280;44805;45.048;5.062;2022-12-10T04:35:46;98432.09;;;2.06;100.00
57376;BME280;44805;45.048;5.062;2022-12-10T04:38:16;98534.47;;;2.76;100.00
57376;BME280;44805;45.048;5.062;2022-12-10T04:40:46;98428.34;;;2.20;100.00
57376;BME280;44805;45.048;5.062;2022-12-10T04:43:17;98514.28;;;2.59;100.00
57376;BME280;44805;45.048;5.062;2022-12-10T04:45:47;98432.56;;;2.00;99.78
57376;BME280;44805;45.048;5.062;2022-12-10T04:48:14;98420.56;;;1.99;100.00
57376;BME280;44805;45.048;5.062;2022-12-10T04:50:40;98425.38;;;2.04;100.00
57376;BME280;44805;45.048;5.062;2022-12-10T04:53:05;98419.75;;;1.99;100.00
57376;BME280;44805;45.048;5.062;2022-12-10T04:55:31;98452.41;;;2.22;100.00
57376;BME280;44805;45.048;5.062;2022-12-10T04:57:56;98491.22;;;2.45;100.00
57376;BME280;44805;45.048;5.062;2022-12-10T05:00:22;98435.16;;;2.21;100.00
57376;BME280;44805;45.048;5.062;2022-12-10T05:02:48;98583.56;;;2.91;100.00
57376;BME280;44805;45.048;5.062;2022-12-10T05:05:14;98516.31;;;2.34;100.00
57376;BME280;44805;45.048;5.062;2022-12-10T05:07:41;98411.69;;;1.81;100.00
57376;BME280;44805;45.048;5.062;2022-12-10T05:10:06;98572.53;;;2.77;100.00
57376;BME280;44805;45.048;5.062;2022-12-10T05:12:32;98433.47;;;1.89;100.00
57376;BME280;44805;45.048;5.062;2022-12-10T05:14:59;98510.91;;;2.26;100.00
57376;BME280;44805;45.048;5.062;2022-12-10T05:17:37;98646.91;;;3.11;100.00
57376;BME280;44805;45.048;5.062;2022-12-10T05:20:03;98428.19;;;1.80;100.00
57376;BME280;44805;45.048;5.062;2022-12-10T05:22:32;98648.47;;;3.02;100.00
57376;BME280;44805;45.048;5.062;2022-12-10T05:25:16;98606.06;;;2.80;100.00
57376;BME280;44805;45.048;5.062;2022-12-10T05:27:45;98544.22;;;2.21;100.00
57376;BME280;44805;45.048;5.062;2022-12-10T05:30:37;98512.69;;;2.05;100.00
57376;BME280;44805;45.048;5.062;2022-12-10T05:33:34;98434.25;;;1.69;100.00
57376;BME280;44805;45.048;5.062;2022-12-10T05:36:06;98501.59;;;2.03;100.00
57376;BME280;44805;45.048;5.062;2022-12-10T05:38:40;98553.63;;;2.33;100.00
57376;BME280;44805;45.048;5.062;2022-12-10T05:41:14;98596.16;;;2.53;100.00
57376;BME280;44805;45.048;5.062;2022-12-10T05:43:42;98493.88;;;1.80;100.00
57376;BME280;44805;45.048;5.062;2022-12-10T05:46:11;98612.53;;;2.65;100.00
57376;BME280;44805;45.048;5.062;2022-12-10T05:48:40;98612.81;;;2.51;100.00
57376;BME280;44805;45.048;5.062;2022-12-10T05:51:09;98615.22;;;2.43;100.00
57376;BME280;44805;45.048;5.062;2022-12-10T05:53:35;98595.44;;;2.30;100.00
57376;BME280;44805;45.048;5.062;2022-12-10T05:56:07;98616.84;;;2.55;100.00
57376;BME280;44805;45.048;5.062;2022-12-10T05:58:36;98679.75;;;2.91;100.00
57376;BME280;44805;45.048;5.062;2022-12-10T06:01:15;98650.34;;;2.58;100.00
57376;BME280;44805;45.048;5.062;2022-12-10T06:03:41;98695.97;;;2.83;100.00
57376;BME280;44805;45.048;5.062;2022-12-10T06:06:10;98510.78;;;1.74;100.00
57376;BME280;44805;45.048;5.062;2022-12-10T06:08:36;98613.56;;;2.42;100.00
57376;BME280;44805;45.048;5.062;2022-12-10T06:11:05;98505.25;;;1.68;100.00
57376;BME280;44805;45.048;5.062;2022-12-10T06:13:40;98638.25;;;2.47;100.00
57376;BME280;44805;45.048;5.062;2022-12-10T06:16:09;98626.59;;;2.30;100.00
57376;BME280;44805;45.048;5.062;2022-12-10T06:18:37;98581.00;;;2.05;100.00
57376;BME280;44805;45.048;5.062;2022-12-10T06:21:04;98529.09;;;1.62;100.00
57376;BME280;44805;45.048;5.062;2022-12-10T06:23:31;98489.78;;;1.34;100.00
57376;BME280;44805;45.048;5.062;2022-12-10T06:25:58;98520.28;;;1.42;100.00
57376;BME280;44805;45.048;5.062;2022-12-10T06:28:33;98676.06;;;2.29;100.00
57376;BME280;44805;45.048;5.062;2022-12-10T06:31:18;98523.72;;;1.31;100.00
57376;BME280;44805;45.048;5.062;2022-12-10T06:33:47;98636.47;;;2.04;100.00
57376;BME280;44805;45.048;5.062;2022-12-10T06:36:16;98583.34;;;1.65;100.00
57376;BME280;44805;45.048;5.062;2022-12-10T06:38:44;98521.56;;;1.47;100.00
57376;BME280;44805;45.048;5.062;2022-12-10T06:41:23;98597.00;;;1.67;100.00
57376;BME280;44805;45.048;5.062;2022-12-10T06:44:16;98538.91;;;1.47;100.00
57376;BME280;44805;45.048;5.062;2022-12-10T08:00:20;98839.81;;;2.27;98.23
57376;BME280;44805;45.048;5.062;2022-12-10T08:03:35;98846.56;;;2.30;99.13
57376;BME280;44805;45.048;5.062;2022-12-10T08:06:59;98766.63;;;1.77;98.12
57376;BME280;44805;45.048;5.062;2022-12-10T08:09:51;98807.00;;;2.04;97.92
57376;BME280;44805;45.048;5.062;2022-12-10T08:13:02;98751.88;;;1.66;99.14
57376;BME280;44805;45.048;5.062;2022-12-10T08:15:43;98864.13;;;2.26;97.60
57376;BME280;44805;45.048;5.062;2022-12-10T08:32:29;98733.56;;;1.45;95.87
57376;BME280;44805;45.048;5.062;2022-12-10T08:42:06;98686.81;;;1.12;97.89
57376;BME280;44805;45.048;5.062;2022-12-10T08:44:35;98847.59;;;2.05;97.14
57376;BME280;44805;45.048;5.062;2022-12-10T08:47:03;98788.34;;;1.76;97.00
57376;BME280;44805;45.048;5.062;2022-12-10T08:49:53;98790.22;;;1.74;97.69
57376;BME280;44805;45.048;5.062;2022-12-10T08:52:20;98769.19;;;1.55;95.31
57376;BME280;44805;45.048;5.062;2022-12-10T08:54:51;98913.00;;;2.21;95.47
57376;BME280;44805;45.048;5.062;2022-12-10T08:57:24;98744.13;;;1.20;95.43
57376;BME280;44805;45.048;5.062;2022-12-10T08:59:52;98826.16;;;1.67;95.83
57376;BME280;44805;45.048;5.062;2022-12-10T09:02:22;98923.28;;;2.34;95.66
57376;BME280;44805;45.048;5.062;2022-12-10T09:08:13;98840.66;;;1.59;94.46
57376;BME280;44805;45.048;5.062;2022-12-10T09:10:46;98717.88;;;0.89;93.42
57376;BME280;44805;45.048;5.062;2022-12-10T09:13:14;98857.75;;;1.97;95.08
57376;BME280;44805;45.048;5.062;2022-12-10T09:15:40;98720.97;;;1.05;94.08
57376;BME280;44805;45.048;5.062;2022-12-10T09:18:05;98799.09;;;1.47;94.89
57376;BME280;44805;45.048;5.062;2022-12-10T09:23:53;98924.34;;;2.31;92.98
57376;BME280;44805;45.048;5.062;2022-12-10T09:26:26;98807.84;;;1.58;94.62
57376;BME280;44805;45.048;5.062;2022-12-10T09:29:22;98844.66;;;1.63;93.78
57376;BME280;44805;45.048;5.062;2022-12-10T09:32:11;98931.16;;;2.21;94.46
57376;BME280;44805;45.048;5.062;2022-12-10T09:38:15;98758.56;;;1.00;94.03
57376;BME280;44805;45.048;5.062;2022-12-10T09:41:02;98791.97;;;1.27;92.89
57376;BME280;44805;45.048;5.062;2022-12-10T09:44:09;98942.91;;;2.27;93.45
57376;BME280;44805;45.048;5.062;2022-12-10T09:52:55;98854.59;;;1.69;93.05
57376;BME280;44805;45.048;5.062;2022-12-10T13:21:26;99034.31;;;1.84;84.49
57376;BME280;44805;45.048;5.062;2022-12-10T13:24:59;98921.56;;;0.79;84.85
